Time;durP1;ratioP1;P1;durP2;ratioP2;P2;SDS_P1;SDS_P2;PMS_P1;PMS_P2;Temp;Humidity;BMP_temperature;BMP_pressure;BME280_temperature;BME280_humidity;BME280_pressure;Samples;Min_cycle;Max_cycle;Signal;HPM_P1;HPM_P2
2023/01/11 00:00:55;;;;;;;0.80;0.80;;;3.70;72.90;;;2.57;61.41;95315.03;4958156;29;20203;-38
2023/01/11 00:03:23;;;;;;;0.70;0.70;;;3.70;73.40;;;2.58;61.13;95319.28;4958211;29;20675;-37
2023/01/11 00:05:54;;;;;;;0.80;0.80;;;3.70;73.50;;;2.61;60.88;95311.22;4957175;29;20247;-38
2023/01/11 00:08:23;;;;;;;0.80;0.80;;;3.70;73.10;;;2.61;60.83;95306.03;4957928;29;20198;-37
2023/01/11 00:10:50;;;;;;;0.80;0.80;;;3.80;73.10;;;2.60;61.32;95299.25;4940862;29;20611;-38
2023/01/11 00:13:18;;;;;;;0.90;0.90;;;3.80;73.10;;;2.60;61.31;95298.41;4941023;29;20202;-38
2023/01/11 00:15:45;;;;;;;0.70;0.70;;;3.80;73.30;;;2.59;61.77;95296.78;4957961;29;20246;-37
2023/01/11 00:18:12;;;;;;;0.80;0.80;;;3.70;73.90;;;2.61;61.70;95295.69;4940741;29;20229;-39
2023/01/11 00:20:40;;;;;;;0.80;0.80;;;3.70;74.00;;;2.62;61.76;95284.38;4941130;29;20207;-37
2023/01/11 00:23:07;;;;;;;0.70;0.70;;;3.70;74.00;;;2.65;61.56;95291.06;4957855;28;20195;-38
2023/01/11 00:25:35;;;;;;;0.80;0.80;;;3.80;73.90;;;2.64;61.39;95286.84;4958370;28;20575;-38
2023/01/11 00:28:02;;;;;;;0.70;0.70;;;3.80;73.60;;;2.62;61.25;95281.78;4940684;29;20191;-38
2023/01/11 00:30:29;;;;;;;0.70;0.70;;;3.80;73.70;;;2.60;61.19;95285.47;4957453;29;20195;-38
2023/01/11 00:32:58;;;;;;;0.75;0.75;;;3.80;73.60;;;2.60;61.76;95288.06;4957657;28;20211;-37
2023/01/11 00:35:28;;;;;;;0.77;0.77;;;3.80;73.60;;;2.59;61.76;95281.25;4957426;29;20196;-38
2023/01/11 00:37:55;;;;;;;0.80;0.80;;;3.80;73.80;;;2.55;62.40;95285.84;4941139;29;20223;-37
2023/01/11 00:40:23;;;;;;;0.80;0.80;;;3.70;74.20;;;2.58;62.59;95279.63;4957328;29;20192;-38
2023/01/11 00:48:22;;;;;;;0.70;0.70;;;3.70;74.20;;;2.57;62.41;95278.78;4956144;29;20191;-37
2023/01/11 00:50:54;;;;;;;0.80;0.80;;;3.70;74.10;;;2.54;61.79;95269.53;4956220;28;20687;-41
2023/01/11 00:53:21;;;;;;;0.90;0.90;;;3.70;74.20;;;2.53;61.68;95267.88;4957181;29;20206;-36
2023/01/11 00:55:47;;;;;;;0.90;0.90;;;3.70;73.90;;;2.51;62.14;95261.19;4957138;29;20195;-41
2023/01/11 00:58:15;;;;;;;0.70;0.70;;;3.70;73.90;;;2.49;62.13;95265.69;4956875;29;20226;-38
2023/01/11 01:00:42;;;;;;;0.80;0.80;;;3.70;73.90;;;2.51;62.52;95271.56;4957260;29;20199;-45
2023/01/11 01:03:09;;;;;;;0.80;0.80;;;3.70;74.60;;;2.54;63.04;95268.72;4957454;29;20191;-36
2023/01/11 01:05:38;;;;;;;0.90;0.90;;;3.70;75.00;;;2.56;63.11;95272.81;4956080;29;20246;-36
2023/01/11 01:08:05;;;;;;;0.70;0.70;;;3.70;75.00;;;2.59;63.17;95268.28;4957065;29;20211;-39
2023/01/11 01:10:33;;;;;;;0.80;0.80;;;3.70;74.90;;;2.62;63.33;95268.84;4940238;29;20200;-46
2023/01/11 01:15:45;;;;;;;0.70;0.70;;;3.70;75.70;;;2.68;63.04;95270.09;4956607;29;20238;-46
2023/01/11 01:18:12;;;;;;;0.70;0.70;;;3.70;75.00;;;2.68;62.37;95272.69;4956675;29;20648;-46
2023/01/11 01:20:39;;;;;;;0.70;0.70;;;3.80;74.70;;;2.67;62.39;95271.88;4957013;29;20183;-46
2023/01/11 01:23:06;;;;;;;0.80;0.80;;;3.80;74.60;;;2.66;62.49;95274.56;4956744;29;20196;-46
2023/01/11 01:25:36;;;;;;;0.65;0.65;;;3.80;74.40;;;2.63;62.42;95275.66;4956733;29;20202;-46
2023/01/11 01:28:03;;;;;;;0.80;0.80;;;3.80;74.40;;;2.63;62.61;95274.84;4956546;29;20258;-46
2023/01/11 01:30:30;;;;;;;0.70;0.70;;;3.80;74.30;;;2.61;62.13;95276.75;4956738;29;20196;-46
2023/01/11 01:32:58;;;;;;;0.80;0.80;;;3.80;74.20;;;2.59;61.76;95276.06;4956792;29;20212;-46
2023/01/11 01:35:25;;;;;;;0.70;0.70;;;3.80;74.00;;;2.53;62.37;95278.22;4958434;28;20203;-46
2023/01/11 01:37:52;;;;;;;0.90;0.90;;;3.80;74.00;;;2.51;62.76;95276.72;4960320;29;20327;-46
2023/01/11 01:40:20;;;;;;;0.80;0.80;;;3.70;74.20;;;2.50;62.41;95273.34;4960670;29;20198;-46
2023/01/11 01:42:53;;;;;;;0.80;0.80;;;3.70;74.20;;;2.50;62.46;95265.56;4960467;29;20631;-46
2023/01/11 01:45:27;;;;;;;0.80;0.80;;;3.70;74.20;;;2.48;62.05;95259.69;4960619;29;20175;-46
2023/01/11 01:48:00;;;;;;;0.70;0.70;;;3.70;74.20;;;2.46;61.86;95255.59;4959702;29;20578;-46
2023/01/11 01:50:37;;;;;;;0.70;0.70;;;3.70;73.90;;;2.39;61.57;95250.13;4960537;29;20191;-46
2023/01/11 01:53:16;;;;;;;0.80;0.80;;;3.70;73.60;;;2.30;61.12;95253.53;4960298;29;20210;-46
2023/01/11 01:55:48;;;;;;;0.70;0.70;;;3.60;73.30;;;2.19;61.16;95244.09;4959487;29;20188;-46
2023/01/11 01:58:20;;;;;;;0.80;0.80;;;3.60;73.10;;;2.08;60.89;95248.41;4960275;29;20219;-46
2023/01/11 02:00:47;;;;;;;0.70;0.70;;;3.50;73.00;;;2.00;61.71;95237.91;4960183;29;20180;-47
2023/01/11 02:03:21;;;;;;;0.70;0.70;;;3.50;73.20;;;1.94;62.25;95228.06;4960171;29;20270;-46
2023/01/11 02:05:51;;;;;;;0.90;0.90;;;3.30;73.50;;;1.92;62.20;95232.56;4960193;29;20188;-46
2023/01/11 02:08:30;;;;;;;0.80;0.80;;;3.30;73.60;;;1.88;62.53;95237.19;4943201;29;20259;-46
2023/01/11 02:10:58;;;;;;;0.80;0.80;;;3.30;74.10;;;1.89;62.89;95235.41;4943691;29;20187;-46
2023/01/11 02:13:26;;;;;;;0.70;0.70;;;3.20;74.20;;;1.91;62.57;95236.09;4959952;29;20227;-46
2023/01/11 02:16:06;;;;;;;0.80;0.80;;;3.20;74.10;;;1.94;62.37;95243.59;4959742;29;20246;-46
2023/01/11 02:18:36;;;;;;;0.80;0.80;;;3.20;74.10;;;1.87;61.75;95232.94;4944782;29;20214;-47
2023/01/11 02:21:24;;;;;;;0.80;0.80;;;3.20;73.80;;;1.80;61.64;95231.03;4960139;29;20628;-46
2023/01/11 02:24:25;;;;;;;0.88;0.88;;;3.20;73.60;;;1.72;61.77;95232.47;4960165;29;20179;-46
2023/01/11 02:27:12;;;;;;;0.80;0.80;;;3.10;73.90;;;1.66;62.48;95232.16;4959830;28;20199;-46
2023/01/11 02:30:05;;;;;;;0.80;0.80;;;3.10;74.20;;;1.65;63.17;95227.94;4960249;29;20226;-46
2023/01/11 02:33:48;;;;;;;0.70;0.70;;;3.00;75.00;;;1.67;63.63;95226.88;4959649;29;20194;-46
2023/01/11 02:36:52;;;;;;;0.80;0.80;;;2.90;75.30;;;1.71;64.20;95227.41;4939388;29;20204;-46
2023/01/11 02:39:44;;;;;;;0.93;0.93;;;2.90;75.80;;;1.76;64.42;95239.03;4958972;29;20189;-46
2023/01/11 02:46:01;;;;;;;0.88;0.88;;;2.90;76.20;;;1.89;63.79;95227.63;4959422;29;20184;-46
2023/01/11 02:48:50;;;;;;;0.90;0.90;;;3.00;76.10;;;1.92;63.40;95223.03;4936674;29;20307;-46
2023/01/11 02:51:40;;;;;;;0.90;0.90;;;3.00;75.50;;;1.91;63.45;95220.56;4959353;29;20600;-46
2023/01/11 02:54:10;;;;;;;0.80;0.80;;;3.10;75.40;;;1.92;63.63;95214.47;4959396;29;20191;-46
2023/01/11 02:56:42;;;;;;;0.80;0.80;;;3.10;75.10;;;1.91;63.44;95218.78;4959439;29;20534;-46
2023/01/11 02:59:23;;;;;;;0.80;0.80;;;3.10;75.00;;;1.89;63.59;95206.94;4942499;29;20222;-46
2023/01/11 03:01:54;;;;;;;0.80;0.80;;;3.10;75.20;;;1.89;63.60;95217.28;4959400;29;20180;-46
2023/01/11 03:04:24;;;;;;;0.80;0.80;;;3.10;75.00;;;1.87;63.71;95201.91;4942742;29;20686;-46
2023/01/11 03:07:22;;;;;;;0.90;0.90;;;3.10;75.00;;;1.87;63.98;95209.66;4958880;29;20196;-46
2023/01/11 03:09:55;;;;;;;0.90;0.90;;;3.10;75.20;;;1.89;64.01;95196.59;4952224;29;20203;-46
2023/01/11 03:12:59;;;;;;;0.70;0.70;;;3.10;75.30;;;1.88;64.27;95190.63;4959201;29;20199;-46
2023/01/11 03:15:55;;;;;;;0.80;0.80;;;3.10;75.40;;;1.88;63.78;95190.63;4958913;29;20226;-46
2023/01/11 03:19:08;;;;;;;0.80;0.80;;;3.10;75.20;;;1.88;63.54;95188.03;4941954;29;20203;-46
2023/01/11 03:21:53;;;;;;;0.90;0.90;;;3.10;75.30;;;1.88;63.82;95193.22;4957959;29;20194;-46
2023/01/11 03:25:05;;;;;;;0.82;0.82;;;3.10;75.20;;;1.87;63.58;95188.19;4942043;29;20195;-46
2023/01/11 03:28:03;;;;;;;0.80;0.80;;;3.10;75.00;;;1.82;63.40;95193.72;4955785;29;20220;-46
2023/01/11 03:30:55;;;;;;;0.70;0.70;;;3.10;74.80;;;1.78;63.62;95192.34;4958818;29;20196;-46
2023/01/11 03:33:45;;;;;;;0.70;0.70;;;3.10;74.70;;;1.73;63.46;95187.59;4957706;29;20258;-47
2023/01/11 03:36:32;;;;;;;0.80;0.80;;;3.00;74.80;;;1.70;63.80;95185.25;4957797;29;20191;-46
2023/01/11 03:39:33;;;;;;;0.80;0.80;;;3.00;74.90;;;1.69;64.07;95180.22;4958299;29;20203;-46
2023/01/11 03:42:04;;;;;;;0.80;0.80;;;3.00;75.50;;;1.70;64.17;95171.50;4942209;29;20218;-46
2023/01/11 03:44:39;;;;;;;0.80;0.80;;;3.00;75.30;;;1.72;64.31;95167.84;4958385;29;20198;-46
2023/01/11 03:47:11;;;;;;;0.80;0.80;;;3.00;75.40;;;1.80;64.29;95166.38;4958207;29;20496;-46
2023/01/11 03:49:49;;;;;;;0.80;0.80;;;3.00;75.50;;;1.86;64.49;95161.47;4941756;29;20719;-46
2023/01/11 03:52:24;;;;;;;0.80;0.80;;;3.00;75.50;;;1.93;64.27;95161.78;4958333;29;20522;-46
2023/01/11 03:54:54;;;;;;;0.80;0.80;;;3.10;76.30;;;2.02;63.90;95165.34;4957583;29;20202;-46
2023/01/11 03:57:35;;;;;;;0.70;0.70;;;3.10;75.50;;;2.12;64.03;95149.84;4956786;28;20208;-46
2023/01/11 04:00:05;;;;;;;0.80;0.80;;;3.20;75.50;;;2.16;63.67;95143.44;4958068;29;20192;-46
2023/01/11 04:02:38;;;;;;;0.70;0.70;;;3.30;75.30;;;2.21;63.09;95157.59;4941249;29;20207;-46
2023/01/11 04:05:07;;;;;;;0.80;0.80;;;3.30;75.10;;;2.21;63.20;95152.44;4941291;29;20179;-46
2023/01/11 04:07:34;;;;;;;0.90;0.90;;;3.40;75.00;;;2.21;62.75;95160.19;4941033;29;20198;-46
2023/01/11 04:10:02;;;;;;;0.70;0.70;;;3.40;74.80;;;2.20;62.71;95155.16;4957808;29;20195;-46
2023/01/11 04:12:29;;;;;;;0.80;0.80;;;3.40;74.70;;;2.16;63.04;95156.38;4957757;29;20258;-46
2023/01/11 04:14:56;;;;;;;0.90;0.90;;;3.40;74.70;;;2.12;62.75;95147.25;4957733;29;20223;-46
2023/01/11 04:17:23;;;;;;;0.80;0.80;;;3.40;74.70;;;2.08;62.58;95139.72;4957366;29;20231;-46
2023/01/11 04:19:50;;;;;;;0.80;0.80;;;3.30;74.40;;;2.04;62.49;95153.91;4957909;28;20265;-46
2023/01/11 04:22:17;;;;;;;0.70;0.70;;;3.30;74.30;;;1.98;62.73;95146.69;4957866;28;20218;-46
2023/01/11 04:24:44;;;;;;;0.70;0.70;;;3.30;74.40;;;1.92;62.69;95139.44;4957947;29;20210;-46
2023/01/11 04:27:12;;;;;;;0.80;0.80;;;3.30;74.40;;;1.87;63.17;95147.59;4957966;29;20576;-46
2023/01/11 04:29:39;;;;;;;0.70;0.70;;;3.20;74.40;;;1.86;63.01;95142.56;4956503;29;20227;-46
2023/01/11 04:32:06;;;;;;;0.80;0.80;;;3.20;74.50;;;1.81;63.36;95135.19;4957539;29;20360;-46
2023/01/11 04:34:33;;;;;;;0.80;0.80;;;3.10;74.40;;;1.81;63.02;95131.78;4957646;29;20199;-47
2023/01/11 04:37:00;;;;;;;0.73;0.73;;;3.10;74.40;;;1.80;63.15;95130.16;4957377;29;20196;-46
2023/01/11 04:39:27;;;;;;;0.80;0.80;;;3.10;74.40;;;1.76;62.77;95135.59;4957042;29;20223;-46
2023/01/11 04:44:40;;;;;;;0.80;0.80;;;3.10;74.30;;;1.67;62.54;95126.06;4957210;29;20191;-46
2023/01/11 04:47:07;;;;;;;0.90;0.90;;;3.00;74.20;;;1.64;63.01;95117.75;4957145;29;20214;-46
2023/01/11 04:49:34;;;;;;;0.80;0.80;;;3.00;74.30;;;1.63;62.94;95116.09;4957072;29;20291;-47
2023/01/11 04:52:01;;;;;;;0.80;0.80;;;3.00;74.40;;;1.66;63.17;95113.22;4957128;29;20200;-46
2023/01/11 04:54:28;;;;;;;0.73;0.73;;;2.90;74.50;;;1.68;63.11;95113.94;4957145;29;20636;-46
2023/01/11 04:56:56;;;;;;;0.80;0.80;;;3.00;74.60;;;1.72;63.54;95105.78;4957751;29;20203;-38
2023/01/11 04:59:24;;;;;;;0.70;0.70;;;3.00;74.80;;;1.76;63.27;95106.34;4957050;29;20230;-38
2023/01/11 05:01:51;;;;;;;0.80;0.80;;;3.00;74.80;;;1.79;63.51;95107.84;4957005;29;20198;-38
2023/01/11 05:04:18;;;;;;;0.70;0.70;;;3.00;74.90;;;1.85;63.23;95102.94;4958087;29;20194;-38
2023/01/11 05:06:45;;;;;;;0.80;0.80;;;3.00;74.80;;;1.89;62.94;95104.31;4940281;29;20694;-38
2023/01/11 05:09:16;;;;;;;0.80;0.80;;;3.10;74.80;;;1.96;63.15;95101.19;4955282;28;20199;-38
2023/01/11 05:11:43;;;;;;;0.80;0.80;;;3.10;75.60;;;1.98;62.85;95104.44;4956952;29;20515;-38
2023/01/11 05:14:11;;;;;;;0.80;0.80;;;3.10;74.80;;;2.02;62.75;95105.84;4956847;29;20195;-38
2023/01/11 05:16:38;;;;;;;0.75;0.75;;;3.10;74.60;;;2.00;62.40;95102.56;4956754;29;20234;-38
2023/01/11 05:19:06;;;;;;;0.80;0.80;;;3.20;74.40;;;1.93;62.09;95104.88;4956874;29;20215;-38
2023/01/11 05:21:35;;;;;;;0.80;0.80;;;3.10;74.20;;;1.81;62.52;95093.81;4956855;29;20207;-38
2023/01/11 05:24:05;;;;;;;0.80;0.80;;;3.20;74.10;;;1.72;62.88;95099.78;4957032;28;20302;-39
2023/01/11 05:26:36;;;;;;;0.80;0.80;;;3.20;74.20;;;1.71;62.88;95100.72;4955973;29;20643;-38
2023/01/11 05:29:10;;;;;;;0.90;0.90;;;3.10;74.20;;;1.69;62.97;95095.69;4956762;29;20183;-36
2023/01/11 05:31:39;;;;;;;0.73;0.73;;;3.10;74.20;;;1.69;62.89;95089.72;4956618;29;20227;-35
2023/01/11 05:34:09;;;;;;;0.80;0.80;;;3.10;74.20;;;1.70;62.72;95086.19;4956680;29;20214;-35
2023/01/11 05:36:36;;;;;;;0.70;0.70;;;3.00;74.10;;;1.69;62.66;95087.13;4956669;29;20214;-35
2023/01/11 05:39:04;;;;;;;0.75;0.75;;;3.00;74.10;;;1.67;62.69;95089.84;4956730;29;20222;-36
2023/01/11 05:41:32;;;;;;;0.90;0.90;;;3.00;74.20;;;1.67;62.60;95084.69;4955763;28;20297;-36
2023/01/11 05:46:44;;;;;;;0.70;0.70;;;3.00;74.40;;;1.58;62.27;95081.09;4956762;29;20688;-39
2023/01/11 05:49:13;;;;;;;0.80;0.80;;;2.90;74.20;;;1.56;62.54;95077.84;4956429;29;20199;-35
2023/01/11 05:51:42;;;;;;;0.90;0.90;;;2.90;74.30;;;1.54;62.51;95076.34;4924016;29;20218;-35
2023/01/11 05:54:12;;;;;;;0.80;0.80;;;2.90;74.20;;;1.54;62.37;95082.31;4956314;29;20204;-35
2023/01/11 05:56:43;;;;;;;0.80;0.80;;;2.90;74.40;;;1.54;62.79;95077.16;4939988;29;20246;-36
2023/01/11 05:59:11;;;;;;;0.80;0.80;;;2.90;74.40;;;1.54;62.86;95071.19;4940308;29;20218;-35
2023/01/11 06:01:38;;;;;;;0.80;0.80;;;2.90;74.40;;;1.58;62.68;95069.94;4956480;29;20262;-36
2023/01/11 06:04:07;;;;;;;0.70;0.70;;;2.90;74.40;;;1.58;62.27;95075.13;4955672;29;20711;-36
2023/01/11 06:06:34;;;;;;;0.80;0.80;;;2.90;74.30;;;1.57;62.28;95074.28;4956497;29;20619;-36
2023/01/11 06:09:02;;;;;;;0.80;0.80;;;2.80;74.20;;;1.57;62.64;95074.28;4956380;29;20202;-36
2023/01/11 06:11:29;;;;;;;0.90;0.90;;;2.90;74.20;;;1.57;62.55;95069.13;4939524;29;20315;-41
2023/01/11 06:13:56;;;;;;;0.80;0.80;;;2.80;74.20;;;1.58;62.66;95068.16;4939553;29;20635;-36
2023/01/11 06:16:23;;;;;;;0.80;0.80;;;2.80;74.20;;;1.62;62.89;95071.31;4939315;29;20298;-36
2023/01/11 06:18:52;;;;;;;0.80;0.80;;;2.80;74.40;;;1.67;63.00;95073.50;4956198;29;20655;-36
2023/01/11 06:21:20;;;;;;;0.80;0.80;;;2.90;74.70;;;1.74;62.95;95070.25;4958032;28;20195;-36
2023/01/11 06:23:52;;;;;;;0.80;0.80;;;2.90;74.80;;;1.83;62.92;95070.41;4959668;29;20554;-36
2023/01/11 06:26:21;;;;;;;0.80;0.80;;;2.90;74.80;;;1.90;63.18;95061.16;4959915;29;20519;-36
2023/01/11 06:28:49;;;;;;;0.70;0.70;;;3.00;75.00;;;1.99;63.10;95054.34;4958788;28;20207;-36
2023/01/11 06:31:17;;;;;;;0.80;0.80;;;3.00;75.00;;;2.10;63.08;95058.59;4959074;29;20230;-36
2023/01/11 06:33:45;;;;;;;0.70;0.70;;;3.10;75.10;;;2.20;63.33;95049.88;4943046;29;20290;-35
2023/01/11 06:36:14;;;;;;;0.80;0.80;;;3.20;75.10;;;2.34;63.21;95047.81;4959587;29;20209;-36
2023/01/11 06:38:42;;;;;;;0.80;0.80;;;3.30;75.20;;;2.46;63.09;95048.50;4959477;29;20258;-35
2023/01/11 06:41:11;;;;;;;0.70;0.70;;;3.30;75.20;;;2.54;62.80;95041.66;4959416;29;20202;-36
2023/01/11 06:43:40;;;;;;;0.80;0.80;;;3.40;75.20;;;2.65;62.93;95038.09;4959624;29;20207;-35
2023/01/11 06:46:13;;;;;;;0.70;0.70;;;3.50;75.20;;;2.69;62.66;95029.09;4959557;29;20282;-35
2023/01/11 06:48:41;;;;;;;0.70;0.70;;;3.60;75.20;;;2.80;62.74;95028.09;4958442;29;20210;-36
2023/01/11 06:51:12;;;;;;;0.70;0.70;;;3.70;75.20;;;2.87;62.75;95031.78;4959319;29;20196;-36
2023/01/11 06:53:44;;;;;;;0.80;0.80;;;3.80;75.20;;;2.96;62.34;95039.66;4943122;29;20187;-36
2023/01/11 06:56:16;;;;;;;0.80;0.80;;;3.80;75.10;;;3.02;62.38;95034.72;4958370;29;20654;-35
2023/01/11 06:58:43;;;;;;;0.80;0.80;;;4.00;75.10;;;3.09;62.71;95040.16;4958446;29;20227;-35
2023/01/11 07:01:13;;;;;;;0.80;0.80;;;4.00;75.10;;;3.17;62.70;95040.28;4958323;29;20608;-35
2023/01/11 07:03:41;;;;;;;0.80;0.80;;;4.10;75.10;;;3.24;62.32;95039.69;4958131;29;20199;-35
2023/01/11 07:06:08;;;;;;;0.70;0.70;;;4.10;75.00;;;3.31;62.45;95051.94;4958105;28;20203;-35
2023/01/11 07:08:37;;;;;;;0.80;0.80;;;4.20;75.00;;;3.36;62.30;95052.31;4959018;29;20274;-36
2023/01/11 07:11:04;;;;;;;0.80;0.80;;;4.30;75.00;;;3.41;62.55;95058.84;4959179;29;20206;-36
2023/01/11 07:13:31;;;;;;;0.70;0.70;;;4.30;75.00;;;3.47;62.28;95064.28;4957925;29;20199;-36
2023/01/11 07:15:58;;;;;;;0.80;0.80;;;4.40;75.80;;;3.53;62.20;95068.06;4938725;29;20247;-36
2023/01/11 07:18:25;;;;;;;0.80;0.80;;;4.40;75.00;;;3.59;62.19;95072.69;4939598;29;20588;-36
2023/01/11 07:20:52;;;;;;;0.80;0.80;;;4.50;75.00;;;3.63;62.09;95071.41;4954599;29;20193;-35
2023/01/11 07:23:19;;;;;;;0.80;0.80;;;4.50;74.90;;;3.68;62.35;95071.00;4939404;29;20196;-36
2023/01/11 07:25:48;;;;;;;0.80;0.80;;;4.60;75.00;;;3.73;62.32;95071.38;4954597;29;20200;-38
2023/01/11 07:28:15;;;;;;;0.80;0.80;;;4.70;75.00;;;3.79;61.98;95065.59;4939455;29;20220;-36
2023/01/11 07:30:42;;;;;;;0.80;0.80;;;4.70;74.90;;;3.84;62.26;95062.56;4938768;29;20259;-36
2023/01/11 07:33:25;;;;;;;0.70;0.70;;;4.70;74.90;;;3.90;61.92;95056.78;4938759;29;20192;-36
2023/01/11 07:35:52;;;;;;;0.80;0.80;;;4.80;74.70;;;3.97;61.48;95068.22;4939376;29;20192;-36
2023/01/11 07:38:19;;;;;;;0.80;0.80;;;4.90;74.70;;;4.04;61.61;95062.44;4939139;29;20647;-36
2023/01/11 07:40:46;;;;;;;0.73;0.73;;;4.90;74.60;;;4.10;61.04;95064.44;4954307;29;20604;-36
2023/01/11 07:43:13;;;;;;;0.70;0.70;;;5.00;75.20;;;4.16;60.73;95067.28;4953977;29;20271;-36
2023/01/11 07:45:46;;;;;;;0.80;0.80;;;5.10;74.30;;;4.25;60.60;95057.78;4954203;29;20557;-36
2023/01/11 07:48:19;;;;;;;0.80;0.80;;;5.20;74.30;;;4.36;61.18;95066.28;4938297;29;20192;-36
2023/01/11 07:50:47;;;;;;;0.70;0.70;;;5.20;74.30;;;4.44;60.82;95061.16;4939262;29;20208;-36
2023/01/11 07:53:15;;;;;;;0.70;0.70;;;5.30;74.20;;;4.52;60.84;95063.00;4938833;29;20211;-36
2023/01/11 07:55:42;;;;;;;0.63;0.63;;;5.40;74.20;;;4.61;61.07;95055.16;4953891;29;20207;-36
2023/01/11 07:58:11;;;;;;;0.70;0.70;;;5.40;74.30;;;4.72;61.06;95056.66;4938918;29;20515;-36
2023/01/11 08:00:39;;;;;;;0.70;0.70;;;5.50;74.30;;;4.82;61.00;95059.16;4953648;29;20230;-36
2023/01/11 08:03:07;;;;;;;0.80;0.80;;;5.60;74.40;;;4.91;61.07;95057.47;4938790;29;20199;-36
2023/01/11 08:05:34;;;;;;;0.70;0.70;;;5.70;74.60;;;4.99;61.11;95059.28;4953663;29;20200;-38
2023/01/11 08:08:03;;;;;;;0.70;0.70;;;5.80;74.60;;;5.07;61.12;95054.94;4953786;29;20219;-39
2023/01/11 08:10:30;;;;;;;0.80;0.80;;;5.80;74.50;;;5.14;61.22;95060.34;4938682;29;20206;-36
2023/01/11 08:15:43;;;;;;;0.70;0.70;;;6.00;74.60;;;5.27;61.04;95054.72;4953724;29;20265;-36
2023/01/11 08:18:12;;;;;;;0.70;0.70;;;6.10;74.60;;;5.33;61.36;95051.50;4957681;29;20659;-36
2023/01/11 08:20:40;;;;;;;0.90;0.90;;;6.10;74.60;;;5.39;61.18;95047.47;4957785;29;20219;-36
2023/01/11 08:23:09;;;;;;;0.70;0.70;;;6.20;74.50;;;5.40;61.00;95047.28;4941166;29;20192;-36
2023/01/11 08:25:37;;;;;;;0.80;0.80;;;6.20;74.40;;;5.46;61.05;95045.88;4956552;29;20199;-35
2023/01/11 08:28:06;;;;;;;0.80;0.80;;;6.30;74.50;;;5.51;61.27;95041.00;4957657;29;20203;-36
2023/01/11 08:30:35;;;;;;;0.70;0.70;;;6.30;74.60;;;5.57;61.32;95049.97;4941021;29;20180;-36
2023/01/11 08:33:05;;;;;;;0.70;0.70;;;6.40;74.60;;;5.61;61.17;95035.66;4957513;29;20202;-36
2023/01/11 08:35:37;;;;;;;0.70;0.70;;;6.40;74.60;;;5.69;61.24;95040.91;4940562;29;20529;-36
2023/01/11 08:38:05;;;;;;;0.68;0.68;;;6.50;74.60;;;5.77;61.48;95042.69;4957108;29;20188;-36
2023/01/11 08:40:33;;;;;;;0.70;0.70;;;6.50;74.70;;;5.86;61.65;95033.13;4957520;28;20215;-36
2023/01/11 08:43:00;;;;;;;0.80;0.80;;;6.60;74.90;;;5.99;61.46;95038.72;4956421;29;20210;-36
2023/01/11 08:45:28;;;;;;;0.70;0.70;;;6.70;75.00;;;6.11;61.52;95033.22;4940345;29;20594;-36
2023/01/11 08:47:55;;;;;;;0.70;0.70;;;6.80;75.10;;;6.24;61.44;95026.53;4957264;29;20551;-36
2023/01/11 08:50:22;;;;;;;0.70;0.70;;;6.90;75.10;;;6.38;61.71;95030.31;4956353;29;20191;-36
2023/01/11 08:52:50;;;;;;;0.68;0.68;;;7.00;75.30;;;6.54;61.58;95034.72;4957244;29;20210;-36
2023/01/11 08:55:18;;;;;;;0.70;0.70;;;7.10;75.30;;;6.63;61.03;95021.66;4956972;29;20207;-35
2023/01/11 08:57:46;;;;;;;0.70;0.70;;;7.30;75.20;;;6.67;61.12;95028.19;4957151;29;20635;-36
2023/01/11 09:00:14;;;;;;;0.70;0.70;;;7.40;74.90;;;6.69;60.78;95027.03;4957040;29;20215;-36
2023/01/11 09:02:43;;;;;;;0.70;0.70;;;7.40;74.60;;;6.67;60.51;95028.19;4957119;29;20210;-36
2023/01/11 09:05:11;;;;;;;0.70;0.70;;;7.50;74.20;;;6.64;59.94;95021.50;4956001;29;20200;-36
2023/01/11 09:07:38;;;;;;;0.70;0.70;;;7.60;74.20;;;6.63;60.41;95019.03;4956970;29;20209;-36
2023/01/11 09:10:06;;;;;;;0.70;0.70;;;7.60;74.20;;;6.71;60.03;95022.47;4956007;29;20653;-36
2023/01/11 09:12:33;;;;;;;0.70;0.70;;;7.60;74.20;;;6.82;60.32;95028.31;4957131;29;20222;-36
2023/01/11 09:15:01;;;;;;;0.60;0.60;;;7.70;74.30;;;6.98;60.77;95024.84;4956670;28;20639;-36
2023/01/11 09:17:28;;;;;;;0.70;0.70;;;7.70;74.30;;;7.20;60.54;95029.38;4956672;29;20249;-36
2023/01/11 09:19:55;;;;;;;0.70;0.70;;;7.80;74.40;;;7.46;60.27;95030.91;4955983;29;20223;-36
2023/01/11 09:22:22;;;;;;;0.70;0.70;;;7.90;74.40;;;7.76;60.61;95035.50;4956810;29;20195;-36
2023/01/11 09:24:49;;;;;;;0.70;0.70;;;8.00;75.00;;;8.03;59.50;95034.19;4956535;29;20606;-36
2023/01/11 09:27:17;;;;;;;0.70;0.70;;;8.20;74.60;;;8.23;58.57;95031.97;4957042;29;20226;-36
2023/01/11 09:29:45;;;;;;;0.70;0.70;;;8.40;74.70;;;8.46;59.07;95034.59;4956821;29;20191;-36
2023/01/11 09:32:12;;;;;;;0.70;0.70;;;8.60;74.90;;;8.64;58.34;95029.06;4955854;29;20639;-36
2023/01/11 09:34:40;;;;;;;0.70;0.70;;;8.90;74.30;;;8.81;58.21;95026.28;4956471;29;20210;-36
2023/01/11 09:37:07;;;;;;;0.70;0.70;;;9.10;74.30;;;8.97;58.06;95025.31;4956661;29;20609;-36
2023/01/11 09:39:35;;;;;;;0.80;0.80;;;9.30;73.90;;;9.14;57.92;95020.72;4955678;29;20571;-36
2023/01/11 09:42:18;;;;;;;0.70;0.70;;;9.40;73.80;;;9.27;57.92;95014.88;4957211;29;20195;-37
2023/01/11 09:45:14;;;;;;;0.85;0.85;;;9.60;73.30;;;9.36;57.73;95008.56;4956736;29;20659;-36
2023/01/11 09:47:51;;;;;;;0.80;0.80;;;9.70;73.10;;;9.50;58.24;95000.88;4956559;29;20197;-36
2023/01/11 09:50:31;;;;;;;0.70;0.70;;;9.90;73.30;;;9.59;57.71;94995.38;4956858;29;20192;-36
2023/01/11 09:53:03;;;;;;;0.80;0.80;;;10.00;71.50;;;9.61;57.48;94993.34;4956777;29;20262;-36
2023/01/11 09:55:42;;;;;;;0.70;0.70;;;10.20;71.70;;;9.60;56.26;94991.72;4956672;28;20183;-37
2023/01/11 09:58:49;;;;;;;0.70;0.70;;;10.20;70.60;;;9.57;57.12;94986.88;4943491;29;20700;-36
2023/01/11 10:01:39;;;;;;;0.70;0.70;;;10.30;70.60;;;9.56;56.70;94990.47;4960274;29;20221;-36
2023/01/11 10:04:46;;;;;;;0.70;0.70;;;10.30;70.20;;;9.53;56.20;94974.31;4959187;29;20194;-39
2023/01/11 10:07:48;;;;;;;0.70;0.70;;;10.40;69.60;;;9.50;56.30;94966.84;4960989;28;20586;-37
2023/01/11 10:11:00;;;;;;;0.70;0.70;;;10.30;69.60;;;9.49;56.17;94960.78;4944158;29;20197;-36
2023/01/11 10:14:10;;;;;;;0.70;0.70;;;10.30;69.40;;;9.49;55.71;94954.75;4947024;29;20187;-36
2023/01/11 10:17:29;;;;;;;0.70;0.70;;;10.30;69.40;;;9.54;55.87;94952.38;4959676;28;20239;-36
2023/01/11 10:20:36;;;;;;;0.70;0.70;;;10.30;69.70;;;9.53;55.19;94940.28;4960028;29;20221;-36
2023/01/11 10:23:45;;;;;;;0.70;0.70;;;10.30;69.30;;;9.53;54.96;94935.03;4943864;29;20179;-36
2023/01/11 10:26:34;;;;;;;0.70;0.70;;;10.30;69.00;;;9.55;55.23;94933.06;4920523;29;20189;-36
2023/01/11 10:30:05;;;;;;;0.70;0.70;;;10.30;69.30;;;9.63;55.34;94937.38;4958929;29;20211;-36
2023/01/11 10:36:04;;;;;;;0.68;0.68;;;10.30;68.90;;;9.73;54.85;94922.19;4959640;29;20673;-36
2023/01/11 10:41:37;;;;;;;0.80;0.80;;;10.40;69.30;;;9.83;54.26;94922.66;4959482;29;20242;-36
2023/01/11 10:44:18;;;;;;;0.70;0.70;;;10.60;69.30;;;9.93;54.16;94925.78;4959558;29;20211;-36
2023/01/11 10:46:51;;;;;;;0.70;0.70;;;10.50;69.10;;;10.05;54.60;94923.47;4943735;29;20210;-36
2023/01/11 10:49:43;;;;;;;0.70;0.70;;;10.60;69.30;;;10.18;54.28;94916.72;4942731;29;20183;-36
2023/01/11 10:52:43;;;;;;;0.70;0.70;;;10.70;68.60;;;10.36;55.15;94924.13;4959618;29;20180;-36
2023/01/11 10:55:24;;;;;;;0.80;0.80;;;10.80;69.80;;;10.56;55.21;94930.38;4942525;29;20188;-36
2023/01/11 10:58:05;;;;;;;0.70;0.70;;;10.90;70.00;;;10.78;54.14;94926.88;4942886;29;20183;-36
2023/01/11 11:00:57;;;;;;;0.70;0.70;;;11.10;68.80;;;10.99;54.55;94934.66;4942467;29;20282;-37
2023/01/11 11:03:58;;;;;;;0.70;0.70;;;11.20;69.70;;;11.16;53.98;94926.47;4942740;29;20297;-36
2023/01/11 11:06:37;;;;;;;0.65;0.65;;;11.30;69.20;;;11.25;52.14;94921.88;4958097;28;20197;-36
2023/01/11 11:09:41;;;;;;;0.80;0.80;;;11.40;69.60;;;11.34;52.93;94918.88;4958785;29;20182;-36
2023/01/11 11:12:24;;;;;;;0.70;0.70;;;11.60;68.80;;;11.42;53.35;94903.97;4958145;29;20351;-36
2023/01/11 11:15:28;;;;;;;0.70;0.70;;;11.70;69.00;;;11.53;53.44;94908.63;4942089;29;20281;-36
2023/01/11 11:17:55;;;;;;;0.60;0.60;;;11.80;68.80;;;11.62;53.12;94907.47;4958981;29;20179;-39
2023/01/11 11:20:28;;;;;;;0.70;0.70;;;12.00;68.80;;;11.66;52.78;94903.41;4958796;29;20234;-36
2023/01/11 11:22:56;;;;;;;0.70;0.70;;;12.10;68.90;;;11.68;52.72;94895.31;4958878;29;20269;-37
2023/01/11 11:25:37;;;;;;;0.70;0.70;;;12.20;68.50;;;11.72;53.41;94901.00;4941864;29;20199;-36
2023/01/11 11:28:31;;;;;;;0.68;0.68;;;12.20;68.90;;;11.77;53.05;94891.53;4959210;29;20670;-36